Time;durP1;ratioP1;P1;durP2;ratioP2;P2;SDS_P1;SDS_P2;PMS_P1;PMS_P2;Temp;Humidity;BMP_temperature;BMP_pressure;BME280_temperature;BME280_humidity;BME280_pressure;Samples;Min_cycle;Max_cycle;Signal;HPM_P1;HPM_P2
2021/03/28 00:02:05;;;;;;;12.20;3.70;;;8.40;63.60;;;;;;5076018;28;20433;-72
2021/03/28 00:04:45;;;;;;;13.67;3.73;;;8.40;63.90;;;;;;5076312;28;20468;-72
2021/03/28 00:07:12;;;;;;;14.97;3.70;;;8.40;64.00;;;;;;5076054;28;20505;-72
2021/03/28 00:09:47;;;;;;;9.70;3.70;;;8.50;64.10;;;;;;5076212;28;20448;-73
2021/03/28 00:12:26;;;;;;;15.37;3.63;;;8.50;65.00;;;;;;5076187;28;20826;-73
2021/03/28 00:14:57;;;;;;;14.33;4.00;;;8.50;64.00;;;;;;5076103;28;20436;-73
2021/03/28 00:17:32;;;;;;;12.43;3.30;;;8.50;64.00;;;;;;5075532;28;20847;-71
2021/03/28 00:20:05;;;;;;;17.97;4.07;;;8.50;64.10;;;;;;5076057;28;20432;-73
2021/03/28 00:22:34;;;;;;;11.30;3.93;;;8.60;65.10;;;;;;5075934;28;20459;-73
2021/03/28 00:25:09;;;;;;;12.37;4.20;;;8.60;64.60;;;;;;5075672;28;20427;-73
2021/03/28 00:27:43;;;;;;;15.60;4.47;;;8.60;64.30;;;;;;5075645;28;20899;-73
2021/03/28 00:30:25;;;;;;;9.00;4.10;;;8.60;64.60;;;;;;5075863;28;20482;-73
2021/03/28 00:32:55;;;;;;;11.50;4.63;;;8.70;64.80;;;;;;5075764;28;20468;-73
2021/03/28 00:35:28;;;;;;;17.73;3.67;;;8.60;64.80;;;;;;5075759;28;20432;-73
2021/03/28 00:38:19;;;;;;;11.67;4.00;;;8.70;65.10;;;;;;5075682;28;20464;-73
2021/03/28 00:41:13;;;;;;;18.90;3.80;;;8.70;65.30;;;;;;5060882;28;21027;-73
2021/03/28 00:43:46;;;;;;;14.23;3.60;;;8.60;65.20;;;;;;5075614;28;20521;-73
2021/03/28 00:46:38;;;;;;;11.73;4.00;;;8.70;65.40;;;;;;5075561;28;20446;-73
2021/03/28 00:49:06;;;;;;;10.90;3.50;;;8.70;65.50;;;;;;5072963;28;21027;-73
2021/03/28 00:51:34;;;;;;;10.83;3.60;;;8.70;65.40;;;;;;5075433;28;20436;-73
2021/03/28 00:54:10;;;;;;;12.50;4.23;;;8.70;65.80;;;;;;5075267;28;20999;-73
2021/03/28 00:56:40;;;;;;;12.00;4.23;;;8.60;66.00;;;;;;5075248;28;20432;-73
2021/03/28 00:59:15;;;;;;;12.00;3.37;;;8.70;66.30;;;;;;5075468;28;20425;-73
2021/03/28 01:02:04;;;;;;;10.27;3.60;;;8.70;66.50;;;;;;5075286;28;20429;-73
2021/03/28 01:04:42;;;;;;;12.87;4.23;;;8.70;66.70;;;;;;5075147;28;20551;-73
2021/03/28 01:07:17;;;;;;;9.10;3.13;;;8.70;66.80;;;;;;5074946;28;20453;-74
2021/03/28 01:10:22;;;;;;;12.87;3.90;;;8.70;66.90;;;;;;5075154;28;20436;-74
2021/03/28 01:13:26;;;;;;;10.00;3.50;;;8.70;67.20;;;;;;5074964;28;20471;-74
2021/03/28 01:16:49;;;;;;;12.33;3.40;;;8.70;67.20;;;;;;5074916;28;20452;-74
2021/03/28 01:19:36;;;;;;;10.00;3.83;;;8.70;67.10;;;;;;5074669;28;20805;-74
2021/03/28 01:22:09;;;;;;;18.00;3.47;;;8.80;67.20;;;;;;5074869;28;20428;-73
2021/03/28 01:24:41;;;;;;;8.27;3.30;;;8.70;67.20;;;;;;5074747;28;20537;-74
2021/03/28 01:27:21;;;;;;;10.80;3.30;;;8.70;67.50;;;;;;5074809;28;20425;-74
2021/03/28 01:29:50;;;;;;;16.83;4.67;;;8.70;67.60;;;;;;5073785;28;20871;-74
2021/03/28 01:32:25;;;;;;;11.40;3.57;;;8.70;67.60;;;;;;5074331;28;20436;-74
2021/03/28 01:34:57;;;;;;;8.07;2.73;;;8.70;67.70;;;;;;5074618;28;20424;-74
2021/03/28 01:37:28;;;;;;;12.17;3.43;;;8.70;68.00;;;;;;5074439;28;20536;-74
2021/03/28 01:40:02;;;;;;;7.87;3.00;;;8.60;68.00;;;;;;5074518;28;20425;-74
2021/03/28 01:42:49;;;;;;;16.63;3.00;;;8.70;68.30;;;;;;5074072;28;20911;-74
2021/03/28 01:45:25;;;;;;;16.73;3.20;;;8.70;68.20;;;;;;5074421;28;20425;-74
2021/03/28 01:48:06;;;;;;;8.07;3.63;;;8.70;68.40;;;;;;5074357;28;20427;-74
2021/03/28 01:50:42;;;;;;;7.37;2.80;;;8.70;68.40;;;;;;5074282;28;20429;-74
2021/03/28 01:53:17;;;;;;;4.97;2.03;;;8.70;68.40;;;;;;5074172;28;20460;-74
2021/03/28 01:55:52;;;;;;;8.20;3.00;;;8.70;68.50;;;;;;5073887;28;20420;-74
2021/03/28 01:58:29;;;;;;;11.63;2.87;;;8.70;68.20;;;;;;5074124;28;20464;-74
2021/03/28 02:01:15;;;;;;;7.90;3.07;;;8.70;68.20;;;;;;5074122;28;20478;-74
2021/03/28 02:03:51;;;;;;;7.53;2.80;;;8.70;68.40;;;;;;5073995;28;20465;-74
2021/03/28 02:06:38;;;;;;;6.53;2.53;;;8.70;68.60;;;;;;5073749;28;21010;-73
2021/03/28 02:09:09;;;;;;;8.20;2.13;;;8.70;68.50;;;;;;5073924;28;20541;-73
2021/03/28 02:11:47;;;;;;;9.63;2.90;;;8.70;68.30;;;;;;5073955;28;20439;-73
2021/03/28 02:14:41;;;;;;;8.23;2.33;;;8.70;68.40;;;;;;5073577;28;20857;-74
2021/03/28 02:17:21;;;;;;;7.13;2.63;;;8.60;68.50;;;;;;5073822;28;20514;-74
2021/03/28 02:19:59;;;;;;;8.50;2.53;;;8.60;68.60;;;;;;5073814;28;20436;-74
2021/03/28 02:22:31;;;;;;;6.27;2.40;;;8.60;69.10;;;;;;5073679;28;20425;-73
2021/03/28 02:25:08;;;;;;;6.87;2.00;;;8.50;68.90;;;;;;5073759;28;20429;-74
2021/03/28 02:27:43;;;;;;;9.07;2.80;;;8.60;69.10;;;;;;5073736;28;20474;-73
2021/03/28 02:30:19;;;;;;;5.43;2.40;;;8.60;69.00;;;;;;5073694;28;20428;-74
2021/03/28 02:32:59;;;;;;;10.63;2.70;;;8.60;69.50;;;;;;5073879;28;20460;-74
2021/03/28 02:35:52;;;;;;;9.77;2.80;;;8.60;68.90;;;;;;5073389;28;20966;-73
2021/03/28 02:38:28;;;;;;;9.37;2.33;;;8.60;69.00;;;;;;5073289;28;20464;-74
2021/03/28 02:41:05;;;;;;;5.97;2.03;;;8.60;68.90;;;;;;5072334;28;20478;-73
2021/03/28 02:43:38;;;;;;;8.97;2.97;;;8.50;68.90;;;;;;5073192;28;21039;-74
2021/03/28 02:46:13;;;;;;;9.13;2.90;;;8.50;69.30;;;;;;5074082;28;20450;-73
2021/03/28 02:49:11;;;;;;;6.73;2.00;;;8.50;69.50;;;;;;5073203;28;20912;-74
2021/03/28 02:52:03;;;;;;;10.53;2.43;;;8.50;69.40;;;;;;5047696;28;20447;-74
2021/03/28 02:55:03;;;;;;;9.30;2.80;;;8.50;69.40;;;;;;5070438;28;20491;-74
2021/03/28 02:57:47;;;;;;;10.33;2.20;;;8.40;69.60;;;;;;5070210;28;21006;-73
2021/03/28 03:00:24;;;;;;;9.43;1.90;;;8.40;69.60;;;;;;5073340;28;20433;-74
2021/03/28 03:03:13;;;;;;;5.83;1.77;;;8.40;69.80;;;;;;5073281;28;20460;-74
2021/03/28 03:06:15;;;;;;;6.10;2.17;;;8.40;69.90;;;;;;5073397;28;20495;-73
2021/03/28 03:08:43;;;;;;;6.20;2.50;;;8.40;69.80;;;;;;5071357;28;20459;-73
2021/03/28 03:11:44;;;;;;;4.00;1.77;;;8.40;69.90;;;;;;5073234;28;20453;-73
2021/03/28 03:14:18;;;;;;;7.67;2.73;;;8.30;70.10;;;;;;5072843;28;20978;-73
2021/03/28 03:17:17;;;;;;;6.83;2.47;;;8.30;70.60;;;;;;5073164;28;20417;-73
2021/03/28 03:20:14;;;;;;;9.60;3.10;;;8.10;71.40;;;;;;5037615;28;20523;-73
2021/03/28 03:23:15;;;;;;;10.73;2.80;;;8.00;72.00;;;;;;5059959;28;20530;-74
2021/03/28 03:26:18;;;;;;;7.83;2.67;;;8.10;72.30;;;;;;5073092;28;20466;-73
2021/03/28 03:29:15;;;;;;;13.17;2.43;;;8.10;72.10;;;;;;5073121;28;20425;-73
2021/03/28 03:32:03;;;;;;;7.17;2.23;;;8.10;71.80;;;;;;5073075;28;20433;-74
2021/03/28 03:34:44;;;;;;;6.13;2.80;;;8.10;72.00;;;;;;5074012;28;20876;-73
2021/03/28 03:37:43;;;;;;;9.70;2.30;;;8.10;72.30;;;;;;5072883;28;20520;-73
2021/03/28 03:40:45;;;;;;;6.87;1.77;;;8.10;72.60;;;;;;5072674;28;20903;-73
2021/03/28 03:43:36;;;;;;;8.00;2.07;;;8.10;72.50;;;;;;5010899;28;20459;-73
2021/03/28 03:46:08;;;;;;;8.20;2.03;;;8.00;72.80;;;;;;5071349;28;20456;-74
2021/03/28 03:48:53;;;;;;;7.30;1.90;;;8.00;73.50;;;;;;5072849;28;20448;-73
2021/03/28 03:51:36;;;;;;;8.73;2.20;;;8.00;73.50;;;;;;5072876;28;20425;-73
2021/03/28 03:54:07;;;;;;;9.40;2.00;;;7.90;73.50;;;;;;5076008;28;20987;-74
2021/03/28 03:56:49;;;;;;;6.43;2.80;;;7.90;73.60;;;;;;5076545;28;20482;-74
2021/03/28 03:59:29;;;;;;;8.37;2.23;;;8.00;73.50;;;;;;5076446;28;20478;-73
2021/03/28 04:02:02;;;;;;;6.97;2.37;;;8.00;73.60;;;;;;5076381;28;20421;-73
2021/03/28 04:04:44;;;;;;;4.47;2.00;;;8.00;73.60;;;;;;5076970;28;20956;-73
2021/03/28 04:07:32;;;;;;;11.57;2.80;;;8.00;73.70;;;;;;5075895;28;20444;-73
2021/03/28 04:10:17;;;;;;;5.97;1.97;;;8.00;73.40;;;;;;5073668;28;20453;-73
2021/03/28 04:12:55;;;;;;;11.87;2.40;;;8.00;73.60;;;;;;5076131;28;20464;-74
2021/03/28 04:15:36;;;;;;;6.03;1.87;;;8.00;73.60;;;;;;5076138;28;20428;-74
2021/03/28 04:18:33;;;;;;;3.40;1.47;;;8.00;73.80;;;;;;5076030;28;20472;-73
2021/03/28 04:21:12;;;;;;;6.17;2.40;;;8.00;73.60;;;;;;5075817;28;20440;-74
2021/03/28 04:24:21;;;;;;;7.83;2.53;;;8.00;73.80;;;;;;5075991;28;20509;-73
2021/03/28 04:27:03;;;;;;;4.70;1.63;;;8.00;74.80;;;;;;5013878;28;20443;-74
2021/03/28 04:29:29;;;;;;;8.57;2.70;;;8.00;74.00;;;;;;5014029;28;20811;-74
2021/03/28 04:32:17;;;;;;;8.33;2.33;;;8.00;74.10;;;;;;5051575;28;20448;-73
2021/03/28 04:35:04;;;;;;;6.43;2.80;;;8.00;74.20;;;;;;5076856;28;20460;-74
2021/03/28 04:37:41;;;;;;;8.57;2.87;;;8.00;74.40;;;;;;5075677;28;20476;-73
2021/03/28 04:40:40;;;;;;;6.40;2.70;;;8.00;74.70;;;;;;5075460;28;20933;-73
2021/03/28 04:43:39;;;;;;;5.63;2.40;;;8.00;74.60;;;;;;5075567;28;20468;-73
2021/03/28 04:46:28;;;;;;;5.80;1.80;;;8.00;74.60;;;;;;5075610;28;20483;-73
2021/03/28 04:49:27;;;;;;;6.70;2.30;;;8.00;75.00;;;;;;5075220;28;20770;-73
2021/03/28 04:52:39;;;;;;;5.87;2.53;;;8.10;75.20;;;;;;5050203;28;20437;-73
2021/03/28 04:55:44;;;;;;;8.30;2.40;;;8.10;75.30;;;;;;5039163;28;20452;-74
2021/03/28 04:58:23;;;;;;;3.40;1.67;;;8.00;75.20;;;;;;5075240;28;20483;-73
2021/03/28 05:01:09;;;;;;;8.83;3.13;;;8.10;75.40;;;;;;5075397;28;20442;-73
2021/03/28 05:04:08;;;;;;;4.93;2.00;;;8.10;75.60;;;;;;5074330;28;20461;-73
2021/03/28 05:07:05;;;;;;;5.83;2.17;;;8.10;75.40;;;;;;5074896;28;20471;-74
2021/03/28 05:09:56;;;;;;;4.63;1.77;;;8.10;75.30;;;;;;5041525;28;20447;-73
2021/03/28 05:12:45;;;;;;;6.10;2.23;;;8.20;76.30;;;;;;5074948;28;20445;-73
2021/03/28 05:16:02;;;;;;;8.80;2.00;;;8.20;75.20;;;;;;5075072;28;20433;-74
2021/03/28 05:19:01;;;;;;;9.10;1.67;;;8.30;75.60;;;;;;5074841;28;20849;-72
2021/03/28 05:21:55;;;;;;;7.90;2.40;;;8.30;75.90;;;;;;5072202;28;20461;-73
2021/03/28 05:24:57;;;;;;;4.90;1.90;;;8.30;75.90;;;;;;5041064;28;20460;-73
2021/03/28 05:27:58;;;;;;;6.10;2.20;;;8.40;76.00;;;;;;5074472;28;20921;-73
2021/03/28 05:30:46;;;;;;;5.97;2.13;;;8.40;76.10;;;;;;5074355;28;20449;-73
2021/03/28 05:33:39;;;;;;;11.90;2.43;;;8.40;76.30;;;;;;5074609;28;20496;-73
2021/03/28 05:36:26;;;;;;;5.00;2.83;;;8.40;76.60;;;;;;5074156;28;20579;-73
2021/03/28 05:39:29;;;;;;;8.67;2.93;;;8.40;76.80;;;;;;5074125;28;20820;-73
2021/03/28 05:42:24;;;;;;;10.83;2.53;;;8.40;76.80;;;;;;5074454;28;20435;-73
2021/03/28 05:45:19;;;;;;;8.57;2.43;;;8.50;76.80;;;;;;5074131;28;20973;-73
2021/03/28 05:48:18;;;;;;;6.07;2.20;;;8.50;76.80;;;;;;5074365;28;20489;-73
2021/03/28 05:51:00;;;;;;;6.60;2.23;;;8.50;76.90;;;;;;5074253;28;20784;-73
2021/03/28 05:53:57;;;;;;;8.57;2.17;;;8.50;77.00;;;;;;5074728;28;20521;-72
2021/03/28 05:56:43;;;;;;;3.70;2.00;;;8.60;76.90;;;;;;5074152;28;20448;-73
2021/03/28 05:59:38;;;;;;;3.77;1.90;;;8.60;77.10;;;;;;5073802;28;20468;-73
2021/03/28 06:02:38;;;;;;;5.03;1.77;;;8.70;77.10;;;;;;5048138;28;20448;-73
2021/03/28 06:05:49;;;;;;;5.47;1.90;;;8.70;77.00;;;;;;5073993;28;20429;-74
2021/03/28 06:08:59;;;;;;;7.17;2.10;;;8.80;77.20;;;;;;5073597;28;20449;-73
2021/03/28 06:12:10;;;;;;;8.30;2.30;;;8.80;76.80;;;;;;5073964;28;20444;-73
2021/03/28 06:14:45;;;;;;;4.10;1.80;;;8.90;76.50;;;;;;5073839;28;20498;-73
2021/03/28 06:17:22;;;;;;;4.83;1.63;;;9.00;76.70;;;;;;5073794;28;20442;-73
2021/03/28 06:20:49;;;;;;;6.77;2.60;;;9.00;76.60;;;;;;5073875;28;20479;-73
2021/03/28 06:23:52;;;;;;;8.63;2.50;;;9.00;76.40;;;;;;5011788;28;20467;-73
2021/03/28 06:27:10;;;;;;;7.33;2.20;;;9.10;76.60;;;;;;5011821;28;20431;-73
2021/03/28 06:30:10;;;;;;;8.30;2.10;;;9.10;76.50;;;;;;5073710;28;20436;-74
2021/03/28 06:33:09;;;;;;;5.60;2.20;;;9.20;76.70;;;;;;5073542;28;20520;-74
2021/03/28 06:36:13;;;;;;;6.97;1.90;;;9.30;76.40;;;;;;5073387;28;20455;-74
2021/03/28 06:39:23;;;;;;;4.17;1.97;;;9.40;75.70;;;;;;5074370;28;20472;-74
2021/03/28 06:42:16;;;;;;;6.00;1.93;;;9.30;75.20;;;;;;5073221;28;20961;-74
2021/03/28 06:45:16;;;;;;;7.03;1.87;;;9.40;74.60;;;;;;5073511;28;20471;-74
2021/03/28 06:48:24;;;;;;;4.77;1.90;;;9.30;74.80;;;;;;5073162;28;20926;-74
2021/03/28 06:51:21;;;;;;;7.17;2.20;;;9.40;75.10;;;;;;5073465;28;20425;-74
2021/03/28 06:54:20;;;;;;;8.93;3.13;;;9.40;75.10;;;;;;5073404;28;20464;-74
2021/03/28 06:57:41;;;;;;;4.97;1.73;;;9.40;74.80;;;;;;5068397;28;20452;-73
2021/03/28 07:00:43;;;;;;;6.50;1.90;;;9.50;74.90;;;;;;5073455;28;20500;-74
2021/03/28 07:03:43;;;;;;;4.53;1.40;;;9.60;74.80;;;;;;5072950;28;20977;-74
2021/03/28 07:06:20;;;;;;;5.50;2.40;;;9.70;74.50;;;;;;5073310;28;20528;-74
2021/03/28 07:09:13;;;;;;;3.83;1.80;;;9.80;74.20;;;;;;5072913;28;20760;-74
2021/03/28 07:11:57;;;;;;;4.87;2.10;;;9.80;74.20;;;;;;5072863;28;20935;-74
2021/03/28 07:15:09;;;;;;;5.73;2.53;;;9.90;73.80;;;;;;5073174;28;20465;-74
2021/03/28 07:18:18;;;;;;;5.27;1.83;;;10.10;72.40;;;;;;5073095;28;20492;-74
2021/03/28 07:21:02;;;;;;;9.20;2.10;;;10.10;71.90;;;;;;5072608;28;20436;-74
2021/03/28 07:23:54;;;;;;;5.17;1.90;;;10.20;71.60;;;;;;5072802;28;20463;-74
2021/03/28 07:26:40;;;;;;;7.30;2.00;;;10.30;71.60;;;;;;5072785;28;20915;-74
2021/03/28 07:29:52;;;;;;;11.30;2.40;;;10.40;71.60;;;;;;5076957;28;20439;-74
2021/03/28 07:32:35;;;;;;;7.70;2.10;;;10.50;71.40;;;;;;5076915;28;20452;-74
2021/03/28 07:35:41;;;;;;;5.10;2.17;;;10.70;70.70;;;;;;5076879;28;20485;-73
2021/03/28 07:38:39;;;;;;;4.07;1.50;;;10.70;70.30;;;;;;5076392;28;20831;-74
2021/03/28 07:41:30;;;;;;;10.03;3.10;;;10.80;69.80;;;;;;5076801;28;20429;-74
2021/03/28 07:44:47;;;;;;;6.37;2.20;;;10.90;70.20;;;;;;5076642;28;20483;-74
2021/03/28 07:47:39;;;;;;;6.70;2.40;;;11.00;70.00;;;;;;5076661;28;20846;-74
2021/03/28 07:50:36;;;;;;;5.40;2.30;;;11.10;70.00;;;;;;5073148;28;20457;-74
2021/03/28 07:53:45;;;;;;;6.77;2.10;;;11.20;69.60;;;;;;5077175;28;20472;-74
2021/03/28 07:56:34;;;;;;;6.00;2.20;;;11.30;69.30;;;;;;5065736;28;20865;-74
2021/03/28 07:59:11;;;;;;;7.53;2.10;;;11.40;68.80;;;;;;5076342;28;20582;-74
2021/03/28 08:02:08;;;;;;;11.40;2.57;;;11.50;68.50;;;;;;5076030;28;20911;-74
2021/03/28 08:05:00;;;;;;;6.93;2.10;;;11.60;68.50;;;;;;5070795;28;20480;-73
2021/03/28 08:07:45;;;;;;;6.57;2.90;;;11.50;68.70;;;;;;5076045;28;20513;-73
2021/03/28 08:10:56;;;;;;;6.73;2.40;;;11.60;68.40;;;;;;5076308;28;20485;-74
2021/03/28 08:13:49;;;;;;;9.13;3.17;;;11.70;68.70;;;;;;5042429;28;20471;-73
2021/03/28 08:16:33;;;;;;;11.20;2.80;;;11.90;68.20;;;;;;5075766;28;20934;-74
2021/03/28 08:19:29;;;;;;;8.33;2.27;;;12.00;68.10;;;;;;5075650;28;20962;-73
2021/03/28 08:22:07;;;;;;;6.40;2.57;;;12.10;67.50;;;;;;5075699;28;20437;-74
2021/03/28 08:25:15;;;;;;;7.70;2.33;;;12.30;67.30;;;;;;5075842;28;20460;-73
2021/03/28 08:27:56;;;;;;;10.33;3.70;;;12.50;66.30;;;;;;5062861;28;20463;-74
2021/03/28 08:30:51;;;;;;;7.27;2.40;;;12.60;66.80;;;;;;5076270;28;20441;-72
2021/03/28 08:34:05;;;;;;;4.17;1.83;;;12.80;67.10;;;;;;5064994;28;20469;-71
2021/03/28 08:37:01;;;;;;;5.60;2.50;;;12.80;65.60;;;;;;5075677;28;20475;-72
2021/03/28 08:40:04;;;;;;;6.83;2.60;;;12.90;65.80;;;;;;5044295;28;20514;-73
2021/03/28 08:42:52;;;;;;;5.83;2.40;;;13.00;64.50;;;;;;5075559;28;20431;-74
2021/03/28 08:45:31;;;;;;;7.23;2.60;;;13.00;63.70;;;;;;5075287;28;20425;-74
2021/03/28 08:48:30;;;;;;;11.73;4.33;;;12.90;64.00;;;;;;5075590;28;20429;-73
2021/03/28 08:51:13;;;;;;;9.73;2.87;;;12.90;63.10;;;;;;5075475;28;20833;-74
2021/03/28 08:54:10;;;;;;;7.70;2.50;;;12.80;62.70;;;;;;5075535;28;20468;-74
2021/03/28 08:56:56;;;;;;;8.20;2.00;;;12.80;63.60;;;;;;5074919;28;20449;-74
2021/03/28 08:59:44;;;;;;;12.70;2.90;;;12.80;61.50;;;;;;5075216;28;20468;-75
2021/03/28 09:02:20;;;;;;;10.10;2.23;;;12.80;63.40;;;;;;5072611;28;20958;-74
2021/03/28 09:04:56;;;;;;;10.87;1.93;;;12.80;61.70;;;;;;5075060;28;20459;-76
2021/03/28 09:07:35;;;;;;;8.60;2.37;;;12.90;62.30;;;;;;5074786;28;20981;-76
2021/03/28 09:10:32;;;;;;;6.83;2.10;;;13.00;62.00;;;;;;5074752;28;20429;-76
2021/03/28 09:13:14;;;;;;;15.07;2.13;;;13.10;61.50;;;;;;5074399;28;20983;-76
2021/03/28 09:16:00;;;;;;;19.10;3.50;;;13.40;59.40;;;;;;5074977;28;20428;-76
2021/03/28 09:18:54;;;;;;;15.50;2.60;;;13.40;59.20;;;;;;5074917;28;20465;-76
2021/03/28 09:21:35;;;;;;;8.83;2.70;;;13.30;58.90;;;;;;5074858;28;20445;-75
2021/03/28 09:24:09;;;;;;;15.87;2.57;;;13.20;59.70;;;;;;5074699;28;20465;-75
2021/03/28 09:26:42;;;;;;;11.17;2.40;;;13.10;59.00;;;;;;5074672;28;20436;-75
2021/03/28 09:29:44;;;;;;;15.87;2.30;;;13.20;61.90;;;;;;5074792;28;20922;-75
2021/03/28 09:32:28;;;;;;;17.63;2.97;;;13.30;59.70;;;;;;5074810;28;20428;-76
2021/03/28 09:35:05;;;;;;;16.17;3.10;;;13.40;60.60;;;;;;5074319;28;20437;-76
2021/03/28 09:37:39;;;;;;;12.47;2.87;;;13.40;58.60;;;;;;5074178;28;20976;-76
2021/03/28 09:40:13;;;;;;;18.97;2.80;;;13.40;58.90;;;;;;5074196;28;20433;-76
2021/03/28 09:43:07;;;;;;;8.77;2.40;;;13.40;58.80;;;;;;5074320;28;20429;-76
2021/03/28 09:45:59;;;;;;;16.30;2.97;;;13.40;58.40;;;;;;5074399;28;20417;-76
2021/03/28 09:48:57;;;;;;;20.63;3.97;;;13.60;60.10;;;;;;5074420;28;20435;-75
2021/03/28 09:52:06;;;;;;;23.20;3.20;;;13.80;59.10;;;;;;5073758;28;20421;-74
2021/03/28 09:55:05;;;;;;;9.13;2.10;;;13.90;58.30;;;;;;5073835;28;20989;-75
2021/03/28 09:58:13;;;;;;;15.27;2.33;;;14.00;56.90;;;;;;5073743;28;20487;-75
2021/03/28 10:01:05;;;;;;;12.93;3.50;;;14.10;57.30;;;;;;5073862;28;20460;-75
2021/03/28 10:03:36;;;;;;;17.27;3.30;;;14.20;56.70;;;;;;5073902;28;20474;-76
2021/03/28 10:06:05;;;;;;;16.17;2.87;;;14.30;56.40;;;;;;5074080;28;20425;-76
2021/03/28 10:08:36;;;;;;;11.13;2.47;;;14.40;55.40;;;;;;5073626;28;20455;-76
2021/03/28 10:11:12;;;;;;;27.77;3.20;;;14.50;54.00;;;;;;5073905;28;20420;-76
2021/03/28 10:14:06;;;;;;;8.93;2.10;;;14.60;53.70;;;;;;5073472;28;20993;-75
2021/03/28 10:16:41;;;;;;;11.53;2.60;;;14.90;53.30;;;;;;5073671;28;20432;-75
2021/03/28 10:19:16;;;;;;;17.10;2.43;;;15.20;52.70;;;;;;5073630;28;20470;-75
2021/03/28 10:22:07;;;;;;;17.20;2.60;;;15.30;52.90;;;;;;5073792;28;20435;-76
2021/03/28 10:25:17;;;;;;;13.50;2.27;;;15.60;51.70;;;;;;5073656;28;20460;-76
2021/03/28 10:28:20;;;;;;;19.13;2.60;;;15.40;50.20;;;;;;5057932;28;20453;-75
2021/03/28 10:30:53;;;;;;;14.97;3.00;;;15.40;50.80;;;;;;5073315;28;20794;-75
2021/03/28 10:33:33;;;;;;;24.80;3.23;;;15.60;49.70;;;;;;5073556;28;20452;-76
2021/03/28 10:36:11;;;;;;;11.63;2.63;;;15.80;48.80;;;;;;5073632;28;20428;-76
2021/03/28 10:39:02;;;;;;;22.07;3.90;;;16.10;49.40;;;;;;5073509;28;20471;-76
2021/03/28 10:41:43;;;;;;;19.07;2.93;;;16.10;48.10;;;;;;5073312;28;20900;-75
2021/03/28 10:44:20;;;;;;;10.70;1.80;;;16.00;48.10;;;;;;5073177;28;21009;-75
2021/03/28 10:47:26;;;;;;;10.70;2.40;;;15.80;47.00;;;;;;5073608;28;20803;-75
2021/03/28 10:50:46;;;;;;;10.63;2.70;;;15.20;48.50;;;;;;5073518;28;20429;-74
2021/03/28 10:53:36;;;;;;;12.07;2.13;;;15.30;48.70;;;;;;5073334;28;20487;-75
2021/03/28 10:56:33;;;;;;;26.47;3.70;;;15.70;47.80;;;;;;5073189;28;20429;-74
2021/03/28 10:59:38;;;;;;;21.10;3.00;;;16.00;47.10;;;;;;5057794;28;20481;-75
2021/03/28 11:03:05;;;;;;;21.33;3.70;;;15.90;46.80;;;;;;5074724;28;20424;-76
2021/03/28 11:05:57;;;;;;;18.37;3.23;;;15.90;47.80;;;;;;5077526;28;20425;-75
2021/03/28 11:08:43;;;;;;;20.63;4.23;;;15.60;47.30;;;;;;5077082;28;20467;-76
2021/03/28 11:11:47;;;;;;;14.53;3.10;;;15.80;48.30;;;;;;5077443;28;20431;-74
2021/03/28 11:14:48;;;;;;;9.83;2.40;;;16.20;46.40;;;;;;5076938;28;20820;-76
2021/03/28 11:17:53;;;;;;;11.93;2.40;;;16.10;46.30;;;;;;5057252;28;20930;-76
2021/03/28 11:20:34;;;;;;;11.60;2.60;;;15.80;46.60;;;;;;5046163;28;20436;-75
2021/03/28 11:23:24;;;;;;;19.90;3.00;;;15.50;46.70;;;;;;5077092;28;20464;-76
2021/03/28 11:26:42;;;;;;;15.50;3.37;;;15.40;48.60;;;;;;5077206;28;20437;-75
2021/03/28 11:29:36;;;;;;;8.80;2.40;;;15.50;47.20;;;;;;5014955;28;20470;-74
2021/03/28 11:32:12;;;;;;;16.27;3.93;;;15.60;48.10;;;;;;5063808;28;20444;-74
2021/03/28 11:34:53;;;;;;;11.40;1.70;;;15.90;47.70;;;;;;5076546;28;20828;-74
2021/03/28 11:37:38;;;;;;;19.73;2.97;;;16.00;47.40;;;;;;5076547;28;20945;-76
2021/03/28 11:40:31;;;;;;;11.07;2.57;;;16.20;46.30;;;;;;5076800;28;20425;-76
2021/03/28 11:43:35;;;;;;;29.50;3.60;;;16.40;47.20;;;;;;5077249;28;20503;-76
2021/03/28 11:46:35;;;;;;;19.70;2.70;;;16.60;45.00;;;;;;5057847;28;20452;-75
2021/03/28 11:49:11;;;;;;;16.00;3.07;;;16.70;43.70;;;;;;5014639;28;20873;-76
2021/03/28 11:52:16;;;;;;;16.30;3.93;;;16.90;44.40;;;;;;5014714;28;20478;-76
2021/03/28 11:54:58;;;;;;;14.67;3.07;;;17.50;45.10;;;;;;5016641;28;20552;-75
2021/03/28 11:57:30;;;;;;;8.53;2.47;;;18.20;43.40;;;;;;5071123;28;20460;-75
2021/03/28 12:00:11;;;;;;;13.75;2.42;;;18.50;41.80;;;;;;5076355;28;20434;-75
2021/03/28 12:02:37;;;;;;;8.03;2.13;;;18.30;42.70;;;;;;5076337;28;20187;-75
2021/03/28 12:05:37;;;;;;;12.67;2.00;;;18.40;42.10;;;;;;5076385;28;20457;-75
2021/03/28 12:08:08;;;;;;;8.33;2.00;;;18.70;41.70;;;;;;5075974;28;20452;-75
2021/03/28 12:10:36;;;;;;;5.83;2.00;;;18.80;39.10;;;;;;5076249;28;20428;-75
2021/03/28 12:13:27;;;;;;;12.33;2.40;;;18.40;40.20;;;;;;5075618;28;20472;-75
2021/03/28 12:16:04;;;;;;;5.30;2.40;;;18.00;41.10;;;;;;5067101;28;20898;-75
2021/03/28 12:18:49;;;;;;;11.27;7.00;;;17.80;41.20;;;;;;5076080;28;20460;-76
2021/03/28 12:21:43;;;;;;;23.70;8.70;;;18.10;41.50;;;;;;5075945;28;20837;-76
2021/03/28 12:24:12;;;;;;;18.83;5.73;;;18.20;40.70;;;;;;5076096;28;21002;-76
2021/03/28 12:26:51;;;;;;;15.87;3.73;;;17.70;40.00;;;;;;5075703;28;20977;-76
2021/03/28 12:29:36;;;;;;;23.00;7.07;;;17.30;42.00;;;;;;5075925;28;20425;-75
2021/03/28 12:32:48;;;;;;;17.90;2.53;;;17.10;43.80;;;;;;5075554;28;20790;-75
2021/03/28 12:35:34;;;;;;;14.47;2.87;;;17.20;43.30;;;;;;5075790;28;20451;-75
2021/03/28 12:38:17;;;;;;;13.23;2.53;;;17.20;42.70;;;;;;5075549;28;20472;-76
2021/03/28 12:40:44;;;;;;;15.50;3.30;;;17.80;42.00;;;;;;5075642;28;20565;-75
2021/03/28 12:43:28;;;;;;;15.50;3.50;;;18.00;40.10;;;;;;5075556;28;20510;-75
2021/03/28 12:45:54;;;;;;;11.83;2.53;;;18.10;40.50;;;;;;5075589;28;20427;-75
2021/03/28 12:48:34;;;;;;;12.53;3.10;;;18.20;40.50;;;;;;5075216;28;20482;-75
2021/03/28 12:51:01;;;;;;;19.70;3.20;;;17.80;40.20;;;;;;5076036;28;20429;-75
2021/03/28 12:53:32;;;;;;;16.17;4.37;;;17.40;41.90;;;;;;5075424;28;20877;-75
2021/03/28 12:56:00;;;;;;;23.40;3.67;;;17.00;40.80;;;;;;5075473;28;20432;-76
2021/03/28 12:58:39;;;;;;;36.43;4.57;;;16.70;41.80;;;;;;5075254;28;20516;-75
2021/03/28 13:01:21;;;;;;;19.70;3.53;;;16.50;42.70;;;;;;5075398;28;20417;-75
2021/03/28 13:03:50;;;;;;;18.23;2.53;;;16.40;42.10;;;;;;5075164;28;20468;-75
2021/03/28 13:06:27;;;;;;;16.07;3.50;;;16.20;41.40;;;;;;5075201;28;20804;-75
2021/03/28 13:08:57;;;;;;;18.10;3.07;;;16.10;43.10;;;;;;5075221;28;20769;-76
2021/03/28 13:11:41;;;;;;;7.17;2.07;;;16.00;43.50;;;;;;5075122;28;20474;-75
2021/03/28 13:14:23;;;;;;;12.23;2.43;;;16.10;44.00;;;;;;5075028;28;20461;-76
2021/03/28 13:16:55;;;;;;;18.43;2.20;;;16.20;44.70;;;;;;5074942;28;20436;-75
2021/03/28 13:19:27;;;;;;;10.97;2.40;;;16.10;41.60;;;;;;5074921;28;20464;-75
2021/03/28 13:22:01;;;;;;;19.50;3.40;;;16.20;42.10;;;;;;5074554;28;20846;-75
2021/03/28 13:24:29;;;;;;;14.83;2.60;;;16.30;42.20;;;;;;5074255;28;20473;-75
2021/03/28 13:27:07;;;;;;;20.60;3.40;;;16.50;42.20;;;;;;5074517;28;20449;-76
2021/03/28 13:29:36;;;;;;;23.20;4.40;;;16.80;41.70;;;;;;5074404;28;20451;-76
2021/03/28 13:32:06;;;;;;;14.23;2.90;;;17.10;42.20;;;;;;5074350;28;20860;-76
2021/03/28 13:34:37;;;;;;;13.93;3.23;;;17.40;40.70;;;;;;5074144;28;20864;-76
2021/03/28 13:37:15;;;;;;;14.10;2.47;;;17.20;40.90;;;;;;5074143;28;20911;-76
2021/03/28 13:39:56;;;;;;;12.67;2.20;;;17.20;41.60;;;;;;5074450;28;20464;-76
2021/03/28 13:42:29;;;;;;;7.53;2.20;;;17.20;41.70;;;;;;5074481;28;20432;-76
2021/03/28 13:44:59;;;;;;;9.13;2.60;;;17.00;41.20;;;;;;5074452;28;20432;-78
2021/03/28 13:47:43;;;;;;;4.73;2.03;;;16.80;41.70;;;;;;5074402;28;20494;-76
2021/03/28 13:50:39;;;;;;;15.03;1.63;;;16.60;41.50;;;;;;5074360;28;20434;-76
2021/03/28 13:53:24;;;;;;;6.10;2.07;;;16.50;43.40;;;;;;5073886;28;21009;-76
2021/03/28 13:56:04;;;;;;;6.37;2.00;;;16.40;42.50;;;;;;5071807;28;20479;-75
2021/03/28 13:58:34;;;;;;;9.50;1.97;;;16.30;43.20;;;;;;5074131;28;20468;-76
2021/03/28 14:01:11;;;;;;;7.90;2.40;;;16.20;43.00;;;;;;5073820;28;20966;-76
2021/03/28 14:03:39;;;;;;;6.37;2.40;;;16.10;44.60;;;;;;5074279;28;20955;-76
2021/03/28 14:06:22;;;;;;;7.60;2.20;;;16.00;43.80;;;;;;5073698;28;20456;-76
2021/03/28 14:08:51;;;;;;;10.87;1.97;;;15.90;44.40;;;;;;5073914;28;20435;-75
2021/03/28 14:11:22;;;;;;;5.70;2.80;;;15.80;44.80;;;;;;5073565;28;20494;-75
2021/03/28 14:13:57;;;;;;;8.57;1.80;;;15.80;44.50;;;;;;5073674;28;20460;-76
2021/03/28 14:16:24;;;;;;;20.43;2.80;;;15.80;45.10;;;;;;5073669;28;20504;-76
2021/03/28 14:18:54;;;;;;;10.40;2.63;;;15.90;44.70;;;;;;5073748;28;20465;-75
2021/03/28 14:21:26;;;;;;;9.80;2.93;;;16.10;44.90;;;;;;5073952;28;20432;-77
2021/03/28 14:23:58;;;;;;;7.53;2.17;;;16.20;43.80;;;;;;5073813;28;20467;-77
2021/03/28 14:26:34;;;;;;;5.00;2.00;;;16.20;43.60;;;;;;5074114;28;20436;-74
2021/03/28 14:29:00;;;;;;;8.33;2.13;;;16.20;44.50;;;;;;5073850;28;20420;-76